Time;durP1;ratioP1;P1;durP2;ratioP2;P2;SDS_P1;SDS_P2;PMS_P1;PMS_P2;Temp;Humidity;BMP_temperature;BMP_pressure;BME280_temperature;BME280_humidity;BME280_pressure;Samples;Min_cycle;Max_cycle;Signal;HPM_P1;HPM_P2
2022/05/18 00:00:16;;;;;;;;;;;17.30;99.90;;;;;;4967297;28;19936;-64
2022/05/18 00:02:43;;;;;;;;;;;17.30;99.90;;;;;;5003230;28;19930;-64
2022/05/18 00:05:10;;;;;;;;;;;17.30;99.90;;;;;;5010335;28;19978;-64
2022/05/18 00:07:36;;;;;;;;;;;17.20;99.90;;;;;;4988915;28;19937;-64
2022/05/18 00:10:04;;;;;;;;;;;17.20;99.90;;;;;;4973949;28;19932;-64
2022/05/18 00:12:32;;;;;;;;;;;17.20;99.90;;;;;;4968586;28;19926;-63
2022/05/18 00:14:58;;;;;;;;;;;17.20;99.90;;;;;;4967527;28;19933;-64
2022/05/18 00:17:25;;;;;;;;;;;17.20;99.90;;;;;;4967345;28;20474;-64
2022/05/18 00:19:52;;;;;;;;;;;17.20;99.90;;;;;;4963554;28;19932;-63
2022/05/18 00:22:18;;;;;;;;;;;17.10;99.90;;;;;;4970026;28;19933;-63
2022/05/18 00:24:45;;;;;;;;;;;17.10;99.90;;;;;;4967890;28;19926;-63
2022/05/18 00:27:12;;;;;;;;;;;17.10;99.90;;;;;;4965524;28;19933;-64
2022/05/18 00:29:40;;;;;;;;;;;17.20;99.90;;;;;;4972737;28;19926;-65
2022/05/18 00:32:06;;;;;;;;;;;17.20;99.90;;;;;;4974320;28;19926;-63
2022/05/18 00:34:33;;;;;;;;;;;17.20;99.90;;;;;;4993577;28;20301;-64
2022/05/18 00:37:00;;;;;;;;;;;17.20;99.90;;;;;;4968825;28;20001;-63
2022/05/18 00:39:26;;;;;;;;;;;17.20;99.90;;;;;;4967716;28;19926;-63
2022/05/18 00:41:53;;;;;;;;;;;17.20;99.90;;;;;;4970718;28;20290;-63
2022/05/18 00:44:21;;;;;;;;;;;17.20;99.90;;;;;;4967556;28;19942;-63
2022/05/18 00:46:49;;;;;;;;;;;17.20;99.90;;;;;;4984361;28;20435;-65
2022/05/18 00:49:16;;;;;;;;;;;17.20;99.90;;;;;;4968371;28;20021;-63
2022/05/18 00:51:45;;;;;;;;;;;17.20;99.90;;;;;;4963107;28;19932;-63
2022/05/18 00:54:13;;;;;;;;;;;17.20;99.90;;;;;;4964426;28;20288;-63
2022/05/18 00:56:42;;;;;;;;;;;17.20;99.90;;;;;;5006076;28;20391;-65
2022/05/18 00:59:10;;;;;;;;;;;17.20;99.90;;;;;;4957150;28;20284;-65
2022/05/18 01:01:37;;;;;;;;;;;17.20;99.90;;;;;;5003192;28;19926;-65
2022/05/18 01:04:06;;;;;;;;;;;17.20;99.90;;;;;;4965706;28;19932;-64
2022/05/18 01:06:35;;;;;;;;;;;17.30;99.90;;;;;;4993795;28;19932;-64
2022/05/18 01:09:03;;;;;;;;;;;17.40;99.90;;;;;;4983663;28;20373;-65
2022/05/18 01:11:30;;;;;;;;;;;17.40;99.90;;;;;;4967242;28;19926;-67
2022/05/18 01:13:57;;;;;;;;;;;17.50;99.90;;;;;;4994729;28;20380;-65
2022/05/18 01:16:25;;;;;;;;;;;17.50;99.90;;;;;;4966760;28;19926;-64
2022/05/18 01:18:55;;;;;;;;;;;17.60;99.90;;;;;;4980061;28;20290;-64
2022/05/18 01:21:25;;;;;;;;;;;17.60;99.90;;;;;;4967039;28;20346;-66
2022/05/18 01:23:55;;;;;;;;;;;17.70;99.90;;;;;;4966829;28;20389;-65
2022/05/18 01:26:31;;;;;;;;;;;17.80;99.90;;;;;;4967606;28;19926;-65
2022/05/18 01:28:59;;;;;;;;;;;17.90;99.90;;;;;;4966318;28;19933;-65
2022/05/18 01:31:41;;;;;;;;;;;18.00;99.90;;;;;;4956664;28;19934;-65
2022/05/18 01:34:08;;;;;;;;;;;18.10;99.90;;;;;;4970955;28;20375;-65
2022/05/18 01:36:34;;;;;;;;;;;18.20;99.70;;;;;;4966830;28;19996;-65
2022/05/18 01:39:02;;;;;;;;;;;18.20;99.40;;;;;;4966171;28;19926;-64
2022/05/18 01:41:29;;;;;;;;;;;18.30;99.20;;;;;;4968747;28;19926;-65
2022/05/18 01:43:59;;;;;;;;;;;18.30;99.10;;;;;;4960364;28;19926;-65
2022/05/18 01:46:27;;;;;;;;;;;18.30;99.10;;;;;;4962429;28;19926;-64
2022/05/18 01:48:54;;;;;;;;;;;18.40;98.20;;;;;;4959366;28;19926;-64
2022/05/18 01:51:26;;;;;;;;;;;18.40;98.10;;;;;;4960364;28;19926;-65
2022/05/18 01:53:52;;;;;;;;;;;18.40;98.10;;;;;;4960200;28;19926;-64
2022/05/18 01:56:19;;;;;;;;;;;18.60;98.30;;;;;;4965922;28;19927;-64
2022/05/18 01:58:46;;;;;;;;;;;18.50;98.40;;;;;;4964209;28;19926;-64
2022/05/18 02:01:14;;;;;;;;;;;18.50;98.60;;;;;;4965073;28;19926;-64
2022/05/18 02:03:41;;;;;;;;;;;18.50;98.70;;;;;;4965467;28;20013;-64
2022/05/18 02:06:08;;;;;;;;;;;18.50;98.70;;;;;;4966786;28;20396;-64
2022/05/18 02:08:34;;;;;;;;;;;18.50;98.80;;;;;;5006253;28;19965;-64
2022/05/18 02:11:01;;;;;;;;;;;18.50;98.90;;;;;;4972265;28;19926;-64
2022/05/18 02:13:28;;;;;;;;;;;18.50;98.90;;;;;;4965829;28;19934;-64
2022/05/18 02:15:54;;;;;;;;;;;18.50;98.80;;;;;;4964098;28;19930;-64
2022/05/18 02:18:22;;;;;;;;;;;18.50;98.70;;;;;;4966380;28;19926;-64
2022/05/18 02:20:50;;;;;;;;;;;18.40;98.50;;;;;;4967384;28;19927;-64
2022/05/18 02:23:17;;;;;;;;;;;18.50;98.30;;;;;;4962521;28;20320;-64
2022/05/18 02:25:44;;;;;;;;;;;18.50;97.90;;;;;;4965894;28;20024;-64
2022/05/18 02:28:10;;;;;;;;;;;18.50;97.70;;;;;;4962073;28;19926;-64
2022/05/18 02:30:37;;;;;;;;;;;18.50;97.60;;;;;;4960124;28;20373;-65
2022/05/18 02:33:04;;;;;;;;;;;18.50;97.40;;;;;;4960932;28;19933;-64
2022/05/18 02:35:33;;;;;;;;;;;18.50;97.40;;;;;;4962610;28;20057;-64
2022/05/18 02:38:00;;;;;;;;;;;18.60;97.10;;;;;;4960873;28;20416;-64
2022/05/18 02:40:26;;;;;;;;;;;18.60;97.00;;;;;;4962902;28;19932;-64
2022/05/18 02:42:53;;;;;;;;;;;18.60;97.10;;;;;;4963314;28;19926;-64
2022/05/18 02:45:20;;;;;;;;;;;18.50;97.10;;;;;;4972427;28;19941;-64
2022/05/18 02:47:47;;;;;;;;;;;18.50;97.10;;;;;;4972224;28;20595;-64
2022/05/18 02:50:13;;;;;;;;;;;18.50;97.00;;;;;;4961518;28;19944;-64
2022/05/18 02:52:41;;;;;;;;;;;18.40;96.90;;;;;;4961653;28;19926;-64
2022/05/18 02:57:53;;;;;;;;;;;18.30;96.70;;;;;;4963272;28;19984;-64
2022/05/18 03:00:20;;;;;;;;;;;18.20;96.70;;;;;;4965439;28;19934;-64
2022/05/18 03:02:46;;;;;;;;;;;18.10;96.60;;;;;;4970103;28;19934;-64
2022/05/18 03:05:14;;;;;;;;;;;18.10;96.70;;;;;;4963103;28;19933;-64
2022/05/18 03:07:43;;;;;;;;;;;18.10;96.70;;;;;;4967218;28;19926;-64
2022/05/18 03:10:10;;;;;;;;;;;18.10;96.80;;;;;;4968966;28;20377;-64
2022/05/18 03:12:37;;;;;;;;;;;18.00;97.00;;;;;;4963858;28;19926;-65
2022/05/18 03:15:04;;;;;;;;;;;18.00;97.30;;;;;;4966385;28;19926;-65
2022/05/18 03:17:30;;;;;;;;;;;17.90;97.50;;;;;;4964631;28;20393;-65
2022/05/18 03:19:57;;;;;;;;;;;17.90;97.30;;;;;;4962765;28;20013;-65
2022/05/18 03:25:09;;;;;;;;;;;18.00;97.10;;;;;;4968682;28;19979;-65
2022/05/18 03:27:40;;;;;;;;;;;18.00;96.80;;;;;;4968050;28;19926;-65
2022/05/18 03:30:07;;;;;;;;;;;18.10;96.50;;;;;;4968135;28;20304;-65
2022/05/18 03:32:33;;;;;;;;;;;18.20;97.20;;;;;;4978878;28;19948;-65
2022/05/18 03:35:00;;;;;;;;;;;18.20;97.20;;;;;;4960629;28;20416;-65
2022/05/18 03:37:27;;;;;;;;;;;18.20;97.20;;;;;;4971633;28;22135;-64
2022/05/18 03:39:53;;;;;;;;;;;18.10;97.30;;;;;;4960925;28;19926;-63
2022/05/18 03:42:21;;;;;;;;;;;18.10;97.30;;;;;;4961867;28;19926;-64
2022/05/18 03:44:48;;;;;;;;;;;18.10;97.20;;;;;;4960031;28;20008;-64
2022/05/18 03:47:15;;;;;;;;;;;18.20;97.00;;;;;;4964775;28;20013;-64
2022/05/18 03:49:41;;;;;;;;;;;18.20;96.60;;;;;;4960563;28;19926;-64
2022/05/18 03:52:08;;;;;;;;;;;18.20;96.10;;;;;;4963628;28;19945;-63
2022/05/18 03:54:35;;;;;;;;;;;18.30;95.40;;;;;;4965664;28;19934;-64
2022/05/18 03:57:02;;;;;;;;;;;18.30;94.30;;;;;;4963155;28;20356;-65
2022/05/18 03:59:30;;;;;;;;;;;18.40;93.50;;;;;;4963144;28;19938;-64
2022/05/18 04:01:56;;;;;;;;;;;18.50;93.20;;;;;;4971878;28;20321;-64
2022/05/18 04:04:23;;;;;;;;;;;18.60;93.00;;;;;;4960485;28;20304;-64
2022/05/18 04:06:49;;;;;;;;;;;18.60;93.60;;;;;;4974479;28;19933;-63
2022/05/18 04:09:17;;;;;;;;;;;18.60;94.10;;;;;;4964677;28;19926;-63
2022/05/18 04:11:43;;;;;;;;;;;18.50;94.30;;;;;;4973205;28;19937;-63
2022/05/18 04:14:10;;;;;;;;;;;18.50;94.50;;;;;;4972921;28;19926;-63
2022/05/18 04:16:38;;;;;;;;;;;18.40;94.60;;;;;;4964897;28;19927;-64
2022/05/18 04:19:05;;;;;;;;;;;18.30;94.30;;;;;;4961561;28;19930;-66
2022/05/18 04:21:31;;;;;;;;;;;18.30;94.20;;;;;;4968682;28;20331;-65
2022/05/18 04:23:58;;;;;;;;;;;18.20;94.20;;;;;;4964157;28;19930;-64
2022/05/18 04:26:25;;;;;;;;;;;18.30;94.30;;;;;;4963741;28;19966;-65
2022/05/18 04:28:51;;;;;;;;;;;18.30;94.30;;;;;;4962406;28;19965;-65
2022/05/18 04:31:18;;;;;;;;;;;18.30;94.50;;;;;;4973459;28;20049;-65
2022/05/18 04:33:46;;;;;;;;;;;18.30;94.50;;;;;;4960919;28;19930;-65
2022/05/18 04:36:13;;;;;;;;;;;18.40;94.90;;;;;;4961512;28;19941;-66
2022/05/18 04:38:40;;;;;;;;;;;18.30;95.10;;;;;;4962274;28;20536;-65
2022/05/18 04:41:06;;;;;;;;;;;18.30;95.20;;;;;;4965339;28;20273;-66
2022/05/18 04:43:33;;;;;;;;;;;18.30;95.20;;;;;;4968167;28;20408;-65
2022/05/18 04:46:00;;;;;;;;;;;18.40;95.10;;;;;;4963038;28;19937;-66
2022/05/18 04:48:30;;;;;;;;;;;18.40;95.20;;;;;;4968703;28;19934;-65
2022/05/18 04:50:58;;;;;;;;;;;18.40;95.30;;;;;;4963274;28;19930;-66
2022/05/18 04:53:25;;;;;;;;;;;18.50;95.50;;;;;;4964855;28;21154;-66
2022/05/18 04:55:52;;;;;;;;;;;18.60;95.60;;;;;;4966355;28;19933;-66
2022/05/18 04:58:18;;;;;;;;;;;18.60;95.80;;;;;;4960330;28;19933;-66
2022/05/18 05:00:45;;;;;;;;;;;18.70;96.10;;;;;;4968994;28;19926;-66
2022/05/18 05:03:12;;;;;;;;;;;18.80;96.40;;;;;;4963329;28;20080;-66
2022/05/18 05:05:39;;;;;;;;;;;18.90;96.40;;;;;;4964999;28;19930;-66
2022/05/18 05:08:07;;;;;;;;;;;18.90;96.50;;;;;;4992606;28;20395;-67
2022/05/18 05:10:34;;;;;;;;;;;18.90;96.60;;;;;;4963227;28;19927;-66
2022/05/18 05:13:00;;;;;;;;;;;19.00;96.80;;;;;;4964676;28;19933;-66
2022/05/18 05:15:27;;;;;;;;;;;19.00;96.90;;;;;;4965910;28;20321;-66
2022/05/18 05:17:54;;;;;;;;;;;19.10;96.80;;;;;;4966642;28;20456;-66
2022/05/18 05:20:20;;;;;;;;;;;19.20;97.00;;;;;;4966306;28;19970;-66
2022/05/18 05:22:47;;;;;;;;;;;19.20;97.20;;;;;;4965319;28;19930;-66
2022/05/18 05:25:15;;;;;;;;;;;19.30;97.30;;;;;;4966185;28;20361;-65
2022/05/18 05:27:42;;;;;;;;;;;19.30;97.50;;;;;;4968058;28;20288;-65
2022/05/18 05:30:10;;;;;;;;;;;19.40;97.60;;;;;;4966272;28;19930;-65
2022/05/18 05:32:36;;;;;;;;;;;19.40;97.60;;;;;;4969110;28;20008;-67
2022/05/18 05:35:03;;;;;;;;;;;19.40;97.80;;;;;;4965729;28;19933;-64
2022/05/18 05:37:30;;;;;;;;;;;19.50;98.10;;;;;;4967636;28;20381;-66
2022/05/18 05:39:57;;;;;;;;;;;19.60;98.10;;;;;;4966627;28;19926;-65
2022/05/18 05:42:25;;;;;;;;;;;19.60;98.10;;;;;;4966900;28;19926;-65
2022/05/18 05:44:52;;;;;;;;;;;19.70;98.20;;;;;;4966988;28;19970;-65
2022/05/18 05:47:19;;;;;;;;;;;19.70;98.40;;;;;;4972309;28;20444;-66
2022/05/18 05:49:46;;;;;;;;;;;19.70;98.60;;;;;;4964511;28;19927;-66
2022/05/18 05:52:13;;;;;;;;;;;19.60;98.90;;;;;;4969899;28;19926;-66
2022/05/18 05:54:40;;;;;;;;;;;19.60;99.20;;;;;;4965082;28;20341;-66
2022/05/18 05:57:07;;;;;;;;;;;19.60;99.60;;;;;;4965607;28;20062;-66
2022/05/18 05:59:36;;;;;;;;;;;19.80;99.60;;;;;;4964167;28;19930;-66
2022/05/18 06:02:03;;;;;;;;;;;19.80;99.80;;;;;;4965896;28;20040;-66
2022/05/18 06:04:31;;;;;;;;;;;19.90;99.90;;;;;;4965102;28;20009;-67
2022/05/18 06:06:58;;;;;;;;;;;20.00;99.90;;;;;;4965805;28;19949;-66
2022/05/18 06:09:25;;;;;;;;;;;21.90;99.90;;;;;;4964045;28;20336;-66
2022/05/18 06:11:52;;;;;;;;;;;23.90;96.70;;;;;;4967026;28;20017;-66
2022/05/18 06:14:19;;;;;;;;;;;25.60;90.70;;;;;;4964653;28;19926;-66
2022/05/18 06:16:47;;;;;;;;;;;26.20;83.30;;;;;;4962066;28;19936;-65
2022/05/18 06:19:14;;;;;;;;;;;25.80;78.50;;;;;;4969142;28;19926;-64
2022/05/18 06:21:41;;;;;;;;;;;24.60;79.10;;;;;;4968555;28;19941;-64
2022/05/18 06:24:08;;;;;;;;;;;23.40;84.30;;;;;;4969596;28;19984;-64
2022/05/18 06:26:36;;;;;;;;;;;22.60;88.70;;;;;;4971103;28;19926;-64
2022/05/18 06:29:03;;;;;;;;;;;22.00;90.40;;;;;;4965444;28;19933;-64
2022/05/18 06:31:29;;;;;;;;;;;21.60;91.90;;;;;;4973855;28;19957;-65
2022/05/18 06:33:58;;;;;;;;;;;21.40;92.30;;;;;;4967666;28;19933;-65
2022/05/18 06:36:24;;;;;;;;;;;21.40;92.00;;;;;;4974109;28;20037;-65
2022/05/18 06:38:51;;;;;;;;;;;21.40;91.20;;;;;;4973733;28;20013;-65
2022/05/18 06:41:24;;;;;;;;;;;21.50;90.10;;;;;;4973162;28;20385;-65
2022/05/18 06:43:52;;;;;;;;;;;21.60;88.40;;;;;;4968340;28;19948;-65
2022/05/18 06:46:19;;;;;;;;;;;22.10;85.30;;;;;;4975605;28;19970;-65
2022/05/18 06:48:46;;;;;;;;;;;23.50;82.20;;;;;;4967493;28;19933;-65
2022/05/18 06:51:14;;;;;;;;;;;24.60;77.10;;;;;;4969742;28;20443;-64
2022/05/18 06:53:41;;;;;;;;;;;25.30;69.70;;;;;;4968705;28;19964;-65
2022/05/18 06:56:08;;;;;;;;;;;25.30;66.90;;;;;;4967824;28;19938;-64
2022/05/18 06:58:34;;;;;;;;;;;25.70;61.70;;;;;;4959954;28;19961;-65
2022/05/18 07:01:01;;;;;;;;;;;25.90;58.00;;;;;;4973680;28;19962;-65
2022/05/18 07:03:28;;;;;;;;;;;25.80;55.40;;;;;;4971085;28;20405;-65
2022/05/18 07:05:55;;;;;;;;;;;25.50;54.50;;;;;;4962382;28;19932;-66
2022/05/18 07:08:23;;;;;;;;;;;25.60;54.20;;;;;;4970800;28;19930;-66
2022/05/18 07:10:49;;;;;;;;;;;26.30;52.20;;;;;;4970008;28;19926;-65
2022/05/18 07:13:17;;;;;;;;;;;27.10;49.80;;;;;;4974023;28;19932;-65
2022/05/18 07:15:45;;;;;;;;;;;27.80;44.40;;;;;;4970473;28;20017;-66
2022/05/18 07:18:12;;;;;;;;;;;27.70;43.00;;;;;;4968518;28;19933;-66
2022/05/18 07:20:38;;;;;;;;;;;27.40;43.10;;;;;;4967524;28;19989;-65
2022/05/18 07:23:05;;;;;;;;;;;28.50;41.90;;;;;;4973929;28;20345;-66
2022/05/18 07:25:33;;;;;;;;;;;28.70;36.90;;;;;;4973171;28;20017;-67
2022/05/18 07:28:00;;;;;;;;;;;28.20;37.10;;;;;;4971837;28;20312;-68
2022/05/18 07:30:27;;;;;;;;;;;28.40;36.30;;;;;;4967568;28;20356;-66
2022/05/18 07:32:54;;;;;;;;;;;28.40;36.00;;;;;;4970813;28;20341;-65
2022/05/18 07:35:20;;;;;;;;;;;28.20;34.20;;;;;;4969668;28;20045;-65
2022/05/18 07:37:47;;;;;;;;;;;28.10;33.60;;;;;;4969996;28;20276;-66
2022/05/18 07:40:14;;;;;;;;;;;27.70;33.10;;;;;;4968324;28;20633;-66
2022/05/18 07:42:42;;;;;;;;;;;27.30;34.30;;;;;;4971176;28;20351;-66
2022/05/18 07:45:09;;;;;;;;;;;27.90;33.00;;;;;;4968225;28;19926;-66
2022/05/18 07:47:36;;;;;;;;;;;28.60;31.90;;;;;;4970959;28;19933;-66
2022/05/18 07:50:03;;;;;;;;;;;28.90;30.30;;;;;;4969307;28;19926;-65
2022/05/18 07:52:30;;;;;;;;;;;29.10;28.50;;;;;;4970902;28;19926;-67
2022/05/18 07:54:57;;;;;;;;;;;29.10;28.80;;;;;;4969109;28;20013;-66
2022/05/18 07:57:23;;;;;;;;;;;28.90;28.20;;;;;;4969898;28;19930;-66
2022/05/18 07:59:59;;;;;;;;;;;29.70;26.20;;;;;;4970472;28;19940;-65
2022/05/18 08:02:25;;;;;;;;;;;29.50;26.50;;;;;;4953736;28;20294;-66
2022/05/18 08:04:52;;;;;;;;;;;29.40;25.60;;;;;;4968428;28;19974;-66
2022/05/18 08:07:19;;;;;;;;;;;29.40;24.50;;;;;;4970621;28;19933;-66
2022/05/18 08:15:16;;;;;;;;;;;29.50;23.60;;;;;;4965779;28;19953;-65
2022/05/18 08:17:44;;;;;;;;;;;29.50;23.30;;;;;;4951997;28;19926;-66
2022/05/18 08:20:13;;;;;;;;;;;30.20;22.30;;;;;;4966233;28;20025;-66
2022/05/18 08:22:39;;;;;;;;;;;31.30;20.80;;;;;;4968333;28;19934;-66
2022/05/18 08:25:08;;;;;;;;;;;31.10;20.50;;;;;;4968059;28;19926;-65
2022/05/18 08:27:35;;;;;;;;;;;30.40;20.10;;;;;;4964340;28;20278;-66
2022/05/18 08:30:02;;;;;;;;;;;30.70;20.60;;;;;;4965833;28;19932;-67
2022/05/18 08:32:30;;;;;;;;;;;31.10;19.80;;;;;;4966006;28;20044;-66
2022/05/18 08:34:57;;;;;;;;;;;31.60;19.20;;;;;;4957899;28;19937;-67
2022/05/18 08:37:23;;;;;;;;;;;31.60;18.20;;;;;;4966152;28;19926;-66
2022/05/18 08:39:50;;;;;;;;;;;31.60;15.50;;;;;;4968721;28;20370;-65
2022/05/18 08:42:17;;;;;;;;;;;31.20;15.50;;;;;;4966626;28;20032;-65
2022/05/18 08:44:44;;;;;;;;;;;31.20;14.80;;;;;;4969439;28;19944;-65
2022/05/18 08:47:11;;;;;;;;;;;30.90;15.00;;;;;;4961618;28;19937;-65
2022/05/18 08:49:42;;;;;;;;;;;30.40;15.20;;;;;;4967881;28;19933;-65
2022/05/18 08:52:21;;;;;;;;;;;30.60;15.60;;;;;;4970546;28;20169;-65
2022/05/18 08:54:52;;;;;;;;;;;31.00;15.00;;;;;;4969331;28;20490;-65
2022/05/18 08:57:21;;;;;;;;;;;30.40;14.60;;;;;;4962818;28;20013;-66
2022/05/18 08:59:49;;;;;;;;;;;29.90;15.00;;;;;;4961396;28;19938;-66
2022/05/18 09:02:17;;;;;;;;;;;30.00;14.80;;;;;;4960784;28;20292;-66
2022/05/18 09:04:51;;;;;;;;;;;30.30;14.40;;;;;;4966047;28;19960;-67
2022/05/18 09:07:21;;;;;;;;;;;29.60;14.10;;;;;;4968745;28;19969;-66
2022/05/18 09:12:34;;;;;;;;;;;30.10;14.40;;;;;;4962900;28;19945;-67
2022/05/18 09:15:03;;;;;;;;;;;30.10;13.90;;;;;;4966666;28;20165;-67
2022/05/18 09:17:39;;;;;;;;;;;31.00;13.10;;;;;;4965739;28;19926;-68
2022/05/18 09:20:15;;;;;;;;;;;31.10;12.90;;;;;;4963769;28;19944;-67
2022/05/18 09:22:49;;;;;;;;;;;28.80;15.90;;;;;;4963391;28;19930;-66
2022/05/18 09:25:20;;;;;;;;;;;27.90;16.60;;;;;;4967669;28;19926;-67
2022/05/18 09:27:55;;;;;;;;;;;28.00;17.60;;;;;;4969369;28;19926;-67
2022/05/18 09:30:25;;;;;;;;;;;27.60;18.60;;;;;;4969548;28;19926;-67
2022/05/18 09:33:02;;;;;;;;;;;28.80;16.90;;;;;;4966680;28;19927;-66
2022/05/18 09:35:43;;;;;;;;;;;27.30;17.50;;;;;;4967960;28;19933;-66
2022/05/18 09:38:12;;;;;;;;;;;28.10;17.10;;;;;;4967109;28;19932;-65
2022/05/18 09:40:41;;;;;;;;;;;29.40;16.60;;;;;;4969139;28;20003;-65
2022/05/18 09:43:11;;;;;;;;;;;29.80;15.30;;;;;;4967313;28;19927;-65
2022/05/18 09:45:40;;;;;;;;;;;29.60;15.50;;;;;;4965101;28;19937;-66
2022/05/18 09:48:08;;;;;;;;;;;29.60;15.00;;;;;;4967343;28;19930;-65
2022/05/18 09:50:36;;;;;;;;;;;29.80;15.10;;;;;;4967960;28;20432;-64
2022/05/18 09:53:05;;;;;;;;;;;30.00;14.50;;;;;;4964310;28;20445;-65
2022/05/18 09:55:32;;;;;;;;;;;30.30;14.30;;;;;;4967823;28;19933;-65
2022/05/18 09:58:01;;;;;;;;;;;30.50;14.20;;;;;;4968289;28;19933;-65
2022/05/18 10:00:28;;;;;;;;;;;30.80;13.60;;;;;;4966183;28;19962;-65
2022/05/18 10:08:32;;;;;;;;;;;29.00;16.50;;;;;;4963016;28;19940;-65
2022/05/18 10:10:59;;;;;;;;;;;27.90;17.60;;;;;;4958798;28;20365;-68
2022/05/18 10:13:28;;;;;;;;;;;26.70;19.70;;;;;;4966700;28;19930;-65
2022/05/18 10:16:03;;;;;;;;;;;26.40;21.00;;;;;;4963049;28;20223;-65
2022/05/18 10:18:34;;;;;;;;;;;26.50;21.10;;;;;;4954991;28;19932;-65
2022/05/18 10:21:02;;;;;;;;;;;26.20;21.50;;;;;;4966888;28;20092;-66
2022/05/18 10:23:33;;;;;;;;;;;25.80;22.30;;;;;;4964371;28;19927;-67
2022/05/18 10:26:01;;;;;;;;;;;26.00;22.40;;;;;;4967734;28;19933;-67
2022/05/18 10:28:29;;;;;;;;;;;26.10;22.20;;;;;;4965141;28;19935;-67
2022/05/18 10:30:57;;;;;;;;;;;25.60;22.70;;;;;;4966965;28;19926;-66
2022/05/18 10:33:31;;;;;;;;;;;25.20;23.60;;;;;;4955545;28;20018;-67
2022/05/18 10:35:58;;;;;;;;;;;25.40;23.30;;;;;;4969140;28;20037;-66
2022/05/18 10:38:25;;;;;;;;;;;25.80;23.80;;;;;;4964654;28;19940;-67
2022/05/18 10:40:56;;;;;;;;;;;25.80;23.40;;;;;;4969217;28;20693;-67
2022/05/18 10:43:31;;;;;;;;;;;26.10;23.20;;;;;;4965844;28;19930;-67
2022/05/18 10:45:59;;;;;;;;;;;26.10;22.70;;;;;;4968962;28;19948;-67
2022/05/18 10:48:27;;;;;;;;;;;25.00;24.00;;;;;;4967011;28;19931;-67
2022/05/18 10:51:02;;;;;;;;;;;25.20;24.80;;;;;;4968436;28;20377;-67
2022/05/18 10:53:30;;;;;;;;;;;25.60;24.20;;;;;;4965257;28;19927;-67
2022/05/18 10:56:03;;;;;;;;;;;25.80;23.90;;;;;;4967084;28;19980;-67
2022/05/18 10:58:31;;;;;;;;;;;25.90;24.20;;;;;;4967290;28;19932;-65
2022/05/18 11:00:59;;;;;;;;;;;26.00;23.70;;;;;;4968162;28;19972;-65
2022/05/18 11:03:29;;;;;;;;;;;26.00;24.30;;;;;;4965033;28;19965;-66
2022/05/18 11:05:58;;;;;;;;;;;26.20;24.00;;;;;;4968812;28;19926;-65
2022/05/18 11:08:27;;;;;;;;;;;26.40;23.30;;;;;;4976213;28;20306;-65
2022/05/18 11:10:57;;;;;;;;;;;26.30;23.60;;;;;;4971294;28;19987;-65
2022/05/18 11:13:38;;;;;;;;;;;26.20;23.90;;;;;;4971170;28;20060;-65
2022/05/18 11:16:10;;;;;;;;;;;26.20;23.80;;;;;;4968032;28;19926;-66
2022/05/18 11:18:42;;;;;;;;;;;26.20;23.60;;;;;;4969005;28;20012;-65
2022/05/18 11:21:13;;;;;;;;;;;25.60;24.20;;;;;;4968119;28;19934;-65
2022/05/18 11:23:45;;;;;;;;;;;25.80;24.50;;;;;;4967135;28;19926;-65
2022/05/18 11:26:16;;;;;;;;;;;26.10;24.40;;;;;;4967379;28;19988;-66
2022/05/18 11:28:52;;;;;;;;;;;26.60;24.50;;;;;;4969304;28;19966;-66
2022/05/18 11:31:35;;;;;;;;;;;26.70;23.80;;;;;;4967204;28;19930;-65
2022/05/18 11:34:05;;;;;;;;;;;26.90;23.00;;;;;;4960160;28;19965;-66
2022/05/18 11:36:38;;;;;;;;;;;26.70;23.40;;;;;;4969937;28;20024;-66
2022/05/18 11:39:10;;;;;;;;;;;26.50;23.80;;;;;;4965042;28;20029;-66
2022/05/18 11:41:48;;;;;;;;;;;26.60;24.20;;;;;;4969796;28;19926;-65
2022/05/18 11:44:22;;;;;;;;;;;26.50;24.10;;;;;;4964206;28;20537;-66
2022/05/18 11:47:01;;;;;;;;;;;26.60;24.20;;;;;;4968473;28;19977;-65
2022/05/18 11:49:33;;;;;;;;;;;26.00;24.40;;;;;;4969440;28;19993;-65
2022/05/18 11:52:08;;;;;;;;;;;26.10;24.70;;;;;;4971326;28;19930;-66
2022/05/18 11:54:41;;;;;;;;;;;25.30;25.90;;;;;;4968345;28;20369;-65
2022/05/18 11:57:15;;;;;;;;;;;25.60;25.70;;;;;;4979444;28;19926;-66
2022/05/18 12:00:03;;;;;;;;;;;26.00;25.10;;;;;;4962799;28;19933;-66
2022/05/18 12:02:50;;;;;;;;;;;25.90;24.90;;;;;;4963039;28;19958;-67
2022/05/18 12:05:22;;;;;;;;;;;25.40;25.80;;;;;;4958714;28;19926;-67
2022/05/18 12:07:57;;;;;;;;;;;25.60;26.20;;;;;;4967315;28;20403;-66
2022/05/18 12:10:25;;;;;;;;;;;25.90;25.50;;;;;;4968827;28;19940;-66
2022/05/18 12:12:56;;;;;;;;;;;26.00;25.60;;;;;;4963406;28;19934;-66
2022/05/18 12:15:32;;;;;;;;;;;25.60;26.20;;;;;;4965413;28;20345;-68
2022/05/18 12:18:00;;;;;;;;;;;26.00;25.70;;;;;;4971313;28;20341;-66
2022/05/18 12:20:30;;;;;;;;;;;26.20;25.10;;;;;;4966771;28;19926;-66
2022/05/18 12:22:59;;;;;;;;;;;25.70;26.20;;;;;;4969111;28;19926;-66
2022/05/18 12:25:27;;;;;;;;;;;25.40;26.30;;;;;;4969845;28;19938;-66
2022/05/18 12:27:55;;;;;;;;;;;25.80;26.70;;;;;;4970496;28;20373;-65
2022/05/18 12:30:23;;;;;;;;;;;26.30;26.30;;;;;;4968923;28;19926;-65
2022/05/18 12:32:51;;;;;;;;;;;26.80;25.70;;;;;;4967952;28;19926;-65
2022/05/18 12:35:19;;;;;;;;;;;27.30;24.60;;;;;;4988655;28;19930;-66
2022/05/18 12:37:50;;;;;;;;;;;27.80;23.70;;;;;;4971087;28;20388;-67
2022/05/18 12:40:25;;;;;;;;;;;27.60;23.20;;;;;;4971216;28;19976;-66
2022/05/18 12:42:57;;;;;;;;;;;27.30;23.60;;;;;;4976187;28;19980;-67
2022/05/18 12:45:30;;;;;;;;;;;27.10;24.60;;;;;;4969563;28;19927;-66
2022/05/18 12:48:07;;;;;;;;;;;26.90;24.10;;;;;;4970308;28;20393;-66
2022/05/18 12:50:36;;;;;;;;;;;26.70;24.00;;;;;;4968136;28;19936;-67
2022/05/18 12:53:04;;;;;;;;;;;27.00;24.40;;;;;;4964856;28;19933;-68
2022/05/18 12:55:37;;;;;;;;;;;27.40;23.80;;;;;;4968853;28;20009;-66
2022/05/18 12:58:05;;;;;;;;;;;27.60;23.10;;;;;;4960556;28;20066;-65
2022/05/18 13:00:40;;;;;;;;;;;27.30;23.00;;;;;;4969086;28;19926;-66
2022/05/18 13:03:24;;;;;;;;;;;27.40;22.80;;;;;;4964864;28;19926;-65
2022/05/18 13:05:52;;;;;;;;;;;27.40;22.60;;;;;;4967624;28;20013;-66
2022/05/18 13:08:35;;;;;;;;;;;27.60;23.10;;;;;;4968620;28;19926;-67
2022/05/18 13:11:10;;;;;;;;;;;27.40;23.00;;;;;;4965798;28;19926;-67
2022/05/18 13:13:52;;;;;;;;;;;27.50;23.40;;;;;;4968218;28;20020;-67
2022/05/18 13:16:18;;;;;;;;;;;27.70;22.90;;;;;;4967488;28;19927;-66
2022/05/18 13:18:57;;;;;;;;;;;27.60;22.20;;;;;;4960354;28;19933;-65
2022/05/18 13:21:27;;;;;;;;;;;27.50;22.10;;;;;;4963222;28;19933;-66
2022/05/18 13:23:55;;;;;;;;;;;27.40;22.10;;;;;;4967049;28;20017;-66
2022/05/18 13:26:26;;;;;;;;;;;26.70;22.60;;;;;;4966760;28;19927;-66
2022/05/18 13:28:54;;;;;;;;;;;26.10;24.20;;;;;;4967155;28;20410;-67
2022/05/18 13:31:21;;;;;;;;;;;26.10;24.30;;;;;;4968654;28;19926;-66
2022/05/18 13:33:52;;;;;;;;;;;26.80;23.60;;;;;;4974864;28;19964;-66
2022/05/18 13:36:46;;;;;;;;;;;27.10;22.90;;;;;;4968786;28;20063;-66
2022/05/18 13:39:14;;;;;;;;;;;27.60;22.00;;;;;;4931544;28;19933;-66
2022/05/18 13:41:43;;;;;;;;;;;27.90;20.80;;;;;;4969912;28;19926;-66
2022/05/18 13:44:09;;;;;;;;;;;28.10;20.80;;;;;;4973005;28;19936;-66
2022/05/18 13:46:36;;;;;;;;;;;28.30;20.60;;;;;;4964483;28;20017;-66
2022/05/18 13:49:08;;;;;;;;;;;28.10;19.60;;;;;;4964826;28;19933;-67
2022/05/18 13:51:36;;;;;;;;;;;28.20;20.10;;;;;;4966332;28;19930;-66
2022/05/18 13:54:06;;;;;;;;;;;28.30;19.90;;;;;;4966200;28;20379;-65
2022/05/18 13:56:35;;;;;;;;;;;28.20;19.10;;;;;;4965272;28;19933;-65
2022/05/18 13:59:04;;;;;;;;;;;28.00;20.00;;;;;;4969334;28;20165;-66
2022/05/18 14:01:32;;;;;;;;;;;28.20;19.10;;;;;;4967185;28;19930;-67
2022/05/18 14:03:59;;;;;;;;;;;28.00;19.30;;;;;;4969612;28;20467;-66
2022/05/18 14:06:27;;;;;;;;;;;28.30;20.10;;;;;;4955946;28;19927;-65
2022/05/18 14:08:58;;;;;;;;;;;28.50;19.00;;;;;;4965569;28;19984;-66
2022/05/18 14:11:26;;;;;;;;;;;28.40;19.20;;;;;;4958348;28;20415;-66
2022/05/18 14:13:53;;;;;;;;;;;28.40;19.40;;;;;;4966766;28;19930;-67
2022/05/18 14:16:30;;;;;;;;;;;28.50;19.10;;;;;;4966287;28;20400;-67
2022/05/18 14:18:58;;;;;;;;;;;28.30;19.00;;;;;;4970694;28;19932;-67
2022/05/18 14:21:25;;;;;;;;;;;28.10;19.70;;;;;;4967800;28;19941;-67
2022/05/18 14:23:56;;;;;;;;;;;28.10;19.90;;;;;;4965144;28;20021;-66
2022/05/18 14:26:26;;;;;;;;;;;27.80;21.80;;;;;;4967105;28;20407;-66
2022/05/18 14:28:53;;;;;;;;;;;27.80;22.20;;;;;;4963649;28;20022;-66
2022/05/18 14:31:22;;;;;;;;;;;28.20;21.60;;;;;;4967954;28;19926;-66
2022/05/18 14:33:49;;;;;;;;;;;28.30;21.30;;;;;;4967606;28;19971;-66
2022/05/18 14:36:21;;;;;;;;;;;28.30;20.60;;;;;;4968212;28;19948;-66
2022/05/18 14:38:51;;;;;;;;;;;28.20;21.00;;;;;;4970354;28;19926;-67
2022/05/18 14:41:19;;;;;;;;;;;28.20;21.20;;;;;;4964065;28;19926;-67
2022/05/18 14:43:46;;;;;;;;;;;27.70;21.60;;;;;;4970410;28;19926;-65